Time;durP1;ratioP1;P1;durP2;ratioP2;P2;SDS_P1;SDS_P2;PMS_P1;PMS_P2;Temp;Humidity;BMP_temperature;BMP_pressure;BME280_temperature;BME280_humidity;BME280_pressure;Samples;Min_cycle;Max_cycle;Signal;HPM_P1;HPM_P2
2021/03/06 00:01:14;;;;;;;;;;;;;;;;;;4938720;29;19930;-64
2021/03/06 00:03:40;;;;;;;;;;;;;;;;;;4949258;28;19930;-64
2021/03/06 00:06:07;;;;;;;;;;;;;;;;;;4948238;28;20009;-65
2021/03/06 00:08:33;;;;;;;;;;;;;;;;;;4943941;28;20355;-64
2021/03/06 00:11:00;;;;;;;;;;;;;;;;;;4953156;28;19930;-65
2021/03/06 00:13:26;;;;;;;;;;;;;;;;;;4943127;28;20291;-65
2021/03/06 00:15:53;;;;;;;;;;;;;;;;;;4950825;28;19931;-65
2021/03/06 00:18:19;;;;;;;;;;;;;;;;;;4943040;28;19927;-64
2021/03/06 00:20:46;;;;;;;;;;;;;;;;;;4947908;29;19926;-64
2021/03/06 00:23:12;;;;;;;;;;;;;;;;;;4944546;29;20384;-63
2021/03/06 00:25:39;;;;;;;;;;;;;;;;;;4949101;28;20183;-64
2021/03/06 00:28:07;;;;;;;;;;;;;;;;;;4944064;29;20422;-64
2021/03/06 00:30:33;;;;;;;;;;;;;;;;;;4948982;29;19930;-64
2021/03/06 00:33:00;;;;;;;;;;;;;;;;;;4945046;28;19927;-66
2021/03/06 00:35:26;;;;;;;;;;;;;;;;;;4945132;29;20025;-64
2021/03/06 00:37:53;;;;;;;;;;;;;;;;;;4945993;28;19941;-63
2021/03/06 00:40:19;;;;;;;;;;;;;;;;;;4941830;28;20009;-64
2021/03/06 00:42:46;;;;;;;;;;;;;;;;;;4945083;29;19933;-63
2021/03/06 00:45:12;;;;;;;;;;;;;;;;;;4944662;29;19927;-65
2021/03/06 00:47:39;;;;;;;;;;;;;;;;;;4952589;28;19926;-64
2021/03/06 00:50:05;;;;;;;;;;;;;;;;;;4946260;29;19927;-64
2021/03/06 00:52:32;;;;;;;;;;;;;;;;;;4948045;29;19936;-61
2021/03/06 00:54:58;;;;;;;;;;;;;;;;;;4951917;28;20310;-63
2021/03/06 00:57:25;;;;;;;;;;;;;;;;;;4944131;28;20391;-65
2021/03/06 00:59:51;;;;;;;;;;;;;;;;;;4942995;29;20017;-64
2021/03/06 01:02:18;;;;;;;;;;;;;;;;;;4948662;28;19986;-65
2021/03/06 01:04:44;;;;;;;;;;;;;;;;;;4939045;29;20102;-62
2021/03/06 01:07:11;;;;;;;;;;;;;;;;;;4943194;28;20017;-63
2021/03/06 01:09:37;;;;;;;;;;;;;;;;;;4944180;28;20413;-64
2021/03/06 01:12:03;;;;;;;;;;;;;;;;;;4942139;28;19931;-64
2021/03/06 01:14:30;;;;;;;;;;;;;;;;;;4938286;29;20013;-63
2021/03/06 01:16:56;;;;;;;;;;;;;;;;;;4944395;29;19927;-64
2021/03/06 01:19:23;;;;;;;;;;;;;;;;;;4941610;28;19931;-64
2021/03/06 01:21:49;;;;;;;;;;;;;;;;;;4938443;28;20395;-63
2021/03/06 01:24:16;;;;;;;;;;;;;;;;;;4941983;29;19937;-65
2021/03/06 01:26:42;;;;;;;;;;;;;;;;;;4949071;28;20010;-64
2021/03/06 01:29:09;;;;;;;;;;;;;;;;;;4945406;29;19933;-64
2021/03/06 01:31:35;;;;;;;;;;;;;;;;;;4961052;28;20025;-64
2021/03/06 01:34:02;;;;;;;;;;;;;;;;;;4945637;29;20303;-66
2021/03/06 01:36:28;;;;;;;;;;;;;;;;;;4946187;28;20345;-65
2021/03/06 01:38:55;;;;;;;;;;;;;;;;;;4945998;29;20142;-63
2021/03/06 01:41:21;;;;;;;;;;;;;;;;;;4939169;29;19934;-64
2021/03/06 01:43:48;;;;;;;;;;;;;;;;;;4951377;28;20036;-64
2021/03/06 01:46:14;;;;;;;;;;;;;;;;;;4947270;28;20298;-67
2021/03/06 01:48:41;;;;;;;;;;;;;;;;;;4945383;29;19926;-64
2021/03/06 01:51:07;;;;;;;;;;;;;;;;;;4943004;29;20009;-64
2021/03/06 01:53:34;;;;;;;;;;;;;;;;;;4938992;29;19927;-63
2021/03/06 01:56:00;;;;;;;;;;;;;;;;;;4945860;28;20417;-64
2021/03/06 01:58:27;;;;;;;;;;;;;;;;;;4947446;28;19981;-66
2021/03/06 02:00:53;;;;;;;;;;;;;;;;;;4944375;28;19985;-65
2021/03/06 02:03:20;;;;;;;;;;;;;;;;;;4940296;29;20027;-64
2021/03/06 02:05:46;;;;;;;;;;;;;;;;;;4943270;29;19933;-64
2021/03/06 02:08:13;;;;;;;;;;;;;;;;;;4941644;29;19942;-65
2021/03/06 02:10:39;;;;;;;;;;;;;;;;;;4939726;29;19930;-65
2021/03/06 02:13:06;;;;;;;;;;;;;;;;;;4937239;29;19951;-64
2021/03/06 02:15:32;;;;;;;;;;;;;;;;;;4939852;29;19926;-64
2021/03/06 02:17:59;;;;;;;;;;;;;;;;;;4937556;28;19999;-64
2021/03/06 02:20:25;;;;;;;;;;;;;;;;;;4940571;29;20021;-65
2021/03/06 02:22:52;;;;;;;;;;;;;;;;;;4940232;29;20387;-66
2021/03/06 02:25:18;;;;;;;;;;;;;;;;;;4946271;29;19933;-63
2021/03/06 02:27:45;;;;;;;;;;;;;;;;;;4943357;28;19934;-64
2021/03/06 02:30:11;;;;;;;;;;;;;;;;;;4940435;29;19933;-63
2021/03/06 02:32:38;;;;;;;;;;;;;;;;;;4939554;29;19943;-64
2021/03/06 02:35:04;;;;;;;;;;;;;;;;;;4946488;28;19927;-65
2021/03/06 02:37:31;;;;;;;;;;;;;;;;;;4946939;28;19926;-63
2021/03/06 02:39:57;;;;;;;;;;;;;;;;;;4941154;29;19966;-64
2021/03/06 02:42:24;;;;;;;;;;;;;;;;;;4944169;29;20026;-64
2021/03/06 02:44:50;;;;;;;;;;;;;;;;;;4951803;28;20013;-65
2021/03/06 02:47:17;;;;;;;;;;;;;;;;;;4942392;28;19926;-64
2021/03/06 02:49:43;;;;;;;;;;;;;;;;;;4943571;29;19938;-64
2021/03/06 02:52:10;;;;;;;;;;;;;;;;;;4937721;28;19935;-64
2021/03/06 02:54:36;;;;;;;;;;;;;;;;;;4952777;28;20025;-63
2021/03/06 02:57:03;;;;;;;;;;;;;;;;;;4937970;28;19930;-65
2021/03/06 02:59:29;;;;;;;;;;;;;;;;;;4951729;28;19966;-64
2021/03/06 03:01:56;;;;;;;;;;;;;;;;;;4944417;28;19927;-62
2021/03/06 03:04:22;;;;;;;;;;;;;;;;;;4945633;29;19996;-64
2021/03/06 03:06:49;;;;;;;;;;;;;;;;;;4937931;28;19931;-62
2021/03/06 03:09:15;;;;;;;;;;;;;;;;;;4945238;28;19954;-64
2021/03/06 03:11:42;;;;;;;;;;;;;;;;;;4939945;28;19958;-64
2021/03/06 03:14:08;;;;;;;;;;;;;;;;;;4946604;29;19926;-65
2021/03/06 03:16:35;;;;;;;;;;;;;;;;;;4947953;28;19971;-65
2021/03/06 03:19:01;;;;;;;;;;;;;;;;;;4948290;28;19985;-65
2021/03/06 03:21:28;;;;;;;;;;;;;;;;;;4940366;29;20009;-65
2021/03/06 03:23:54;;;;;;;;;;;;;;;;;;4939607;29;19926;-65
2021/03/06 03:26:21;;;;;;;;;;;;;;;;;;4942159;28;19930;-65
2021/03/06 03:28:47;;;;;;;;;;;;;;;;;;4944524;28;19934;-66
2021/03/06 03:31:14;;;;;;;;;;;;;;;;;;4941623;29;20029;-66
2021/03/06 03:33:40;;;;;;;;;;;;;;;;;;4944385;29;20404;-65
2021/03/06 03:36:07;;;;;;;;;;;;;;;;;;4956932;28;19927;-65
2021/03/06 03:38:33;;;;;;;;;;;;;;;;;;4949221;28;20021;-66
2021/03/06 03:41:00;;;;;;;;;;;;;;;;;;4944869;29;19969;-66
2021/03/06 03:43:26;;;;;;;;;;;;;;;;;;4949384;29;19927;-65
2021/03/06 03:45:53;;;;;;;;;;;;;;;;;;4944528;28;19935;-65
2021/03/06 03:48:19;;;;;;;;;;;;;;;;;;4943358;28;19990;-65
2021/03/06 03:50:46;;;;;;;;;;;;;;;;;;4947464;29;19931;-65
2021/03/06 03:53:12;;;;;;;;;;;;;;;;;;4950265;28;20054;-65
2021/03/06 03:55:39;;;;;;;;;;;;;;;;;;4956915;28;20013;-65
2021/03/06 03:58:05;;;;;;;;;;;;;;;;;;4939633;29;19927;-65
2021/03/06 04:00:32;;;;;;;;;;;;;;;;;;4956723;28;19962;-68
2021/03/06 04:02:58;;;;;;;;;;;;;;;;;;4945798;28;19933;-65
2021/03/06 04:05:25;;;;;;;;;;;;;;;;;;4948729;29;20408;-65
2021/03/06 04:07:51;;;;;;;;;;;;;;;;;;4944904;28;19946;-65
2021/03/06 04:10:18;;;;;;;;;;;;;;;;;;4955200;28;19927;-65
2021/03/06 04:12:44;;;;;;;;;;;;;;;;;;4945768;29;20395;-65
2021/03/06 04:15:11;;;;;;;;;;;;;;;;;;4938639;28;19927;-65
2021/03/06 04:17:37;;;;;;;;;;;;;;;;;;4944855;29;19927;-66
2021/03/06 04:20:04;;;;;;;;;;;;;;;;;;4950857;28;20021;-65
2021/03/06 04:22:30;;;;;;;;;;;;;;;;;;4942499;29;19926;-65
2021/03/06 04:24:57;;;;;;;;;;;;;;;;;;4946632;29;19927;-66
2021/03/06 04:27:23;;;;;;;;;;;;;;;;;;4943080;28;19930;-65
2021/03/06 04:29:50;;;;;;;;;;;;;;;;;;4945109;28;19926;-65
2021/03/06 04:32:16;;;;;;;;;;;;;;;;;;4949635;28;20291;-65
2021/03/06 04:34:43;;;;;;;;;;;;;;;;;;4949462;29;19937;-66
2021/03/06 04:37:09;;;;;;;;;;;;;;;;;;4942472;28;20013;-65
2021/03/06 04:39:36;;;;;;;;;;;;;;;;;;4939387;28;20405;-66
2021/03/06 04:42:02;;;;;;;;;;;;;;;;;;4953170;28;19926;-65
2021/03/06 04:44:29;;;;;;;;;;;;;;;;;;4940638;29;19927;-66
2021/03/06 04:46:55;;;;;;;;;;;;;;;;;;4946040;29;19934;-65
2021/03/06 04:49:24;;;;;;;;;;;;;;;;;;4951208;29;19927;-65
2021/03/06 04:51:51;;;;;;;;;;;;;;;;;;4946796;28;19973;-65
2021/03/06 04:54:17;;;;;;;;;;;;;;;;;;4942522;28;20009;-65
2021/03/06 04:56:44;;;;;;;;;;;;;;;;;;4944428;28;19926;-65
2021/03/06 04:59:10;;;;;;;;;;;;;;;;;;4936565;29;20021;-65
2021/03/06 05:01:37;;;;;;;;;;;;;;;;;;4952922;28;19949;-65
2021/03/06 05:04:03;;;;;;;;;;;;;;;;;;4953423;28;19954;-66
2021/03/06 05:06:30;;;;;;;;;;;;;;;;;;4947608;28;19927;-65
2021/03/06 05:08:56;;;;;;;;;;;;;;;;;;4948245;28;20346;-65
2021/03/06 05:11:22;;;;;;;;;;;;;;;;;;4948946;28;19930;-65
2021/03/06 05:13:49;;;;;;;;;;;;;;;;;;4952720;28;19926;-65
2021/03/06 05:16:15;;;;;;;;;;;;;;;;;;4942501;28;19927;-65
2021/03/06 05:18:42;;;;;;;;;;;;;;;;;;4941065;28;20042;-65
2021/03/06 05:21:09;;;;;;;;;;;;;;;;;;4946946;29;20347;-65
2021/03/06 05:23:36;;;;;;;;;;;;;;;;;;4947848;28;20339;-65
2021/03/06 05:26:02;;;;;;;;;;;;;;;;;;4935932;29;20352;-65
2021/03/06 05:28:29;;;;;;;;;;;;;;;;;;4935476;29;19927;-66
2021/03/06 05:30:55;;;;;;;;;;;;;;;;;;4951095;28;20383;-65
2021/03/06 05:33:22;;;;;;;;;;;;;;;;;;4952362;28;19936;-65
2021/03/06 05:35:51;;;;;;;;;;;;;;;;;;4951630;28;20090;-65
2021/03/06 05:38:17;;;;;;;;;;;;;;;;;;4944746;28;19969;-65
2021/03/06 05:40:44;;;;;;;;;;;;;;;;;;4947678;29;19932;-65
2021/03/06 05:43:10;;;;;;;;;;;;;;;;;;4943622;28;19953;-65
2021/03/06 05:45:37;;;;;;;;;;;;;;;;;;4950671;29;20014;-68
2021/03/06 05:48:03;;;;;;;;;;;;;;;;;;4947873;29;19961;-66
2021/03/06 05:50:30;;;;;;;;;;;;;;;;;;4942866;28;19933;-65
2021/03/06 05:52:56;;;;;;;;;;;;;;;;;;4938763;29;19927;-65
2021/03/06 05:55:23;;;;;;;;;;;;;;;;;;4943911;29;19981;-65
2021/03/06 05:57:49;;;;;;;;;;;;;;;;;;4944438;29;20350;-65
2021/03/06 06:00:16;;;;;;;;;;;;;;;;;;4948632;28;19927;-65
2021/03/06 06:02:42;;;;;;;;;;;;;;;;;;4946945;29;20319;-65
2021/03/06 06:05:09;;;;;;;;;;;;;;;;;;4941333;29;19927;-65
2021/03/06 06:07:35;;;;;;;;;;;;;;;;;;4940388;29;19927;-65
2021/03/06 06:10:02;;;;;;;;;;;;;;;;;;4949821;28;19933;-65
2021/03/06 06:12:28;;;;;;;;;;;;;;;;;;4939916;28;19931;-65
2021/03/06 06:14:55;;;;;;;;;;;;;;;;;;4944569;29;19927;-66
2021/03/06 06:17:21;;;;;;;;;;;;;;;;;;4946454;29;19926;-66
2021/03/06 06:19:47;;;;;;;;;;;;;;;;;;4951343;28;20029;-66
2021/03/06 06:22:16;;;;;;;;;;;;;;;;;;4948677;28;19926;-70
2021/03/06 06:24:43;;;;;;;;;;;;;;;;;;4944137;29;19934;-65
2021/03/06 06:27:09;;;;;;;;;;;;;;;;;;4941160;28;20292;-67
2021/03/06 06:29:37;;;;;;;;;;;;;;;;;;4940019;29;19933;-65
2021/03/06 06:32:03;;;;;;;;;;;;;;;;;;4939886;28;19926;-65
2021/03/06 06:34:30;;;;;;;;;;;;;;;;;;4946053;28;19932;-65
2021/03/06 06:36:56;;;;;;;;;;;;;;;;;;4944841;28;19931;-65
2021/03/06 06:39:23;;;;;;;;;;;;;;;;;;4938427;29;19937;-66
2021/03/06 06:41:49;;;;;;;;;;;;;;;;;;4940903;29;19926;-66
2021/03/06 06:44:15;;;;;;;;;;;;;;;;;;4936752;28;20074;-66
2021/03/06 06:46:42;;;;;;;;;;;;;;;;;;4934116;29;19934;-66
2021/03/06 06:49:08;;;;;;;;;;;;;;;;;;4939907;29;19926;-66
2021/03/06 06:51:38;;;;;;;;;;;;;;;;;;4936734;28;19927;-67
2021/03/06 06:54:08;;;;;;;;;;;;;;;;;;4934232;29;19945;-65
2021/03/06 06:56:37;;;;;;;;;;;;;;;;;;4941787;28;19927;-65
2021/03/06 06:59:08;;;;;;;;;;;;;;;;;;4936446;29;19957;-65
2021/03/06 07:01:35;;;;;;;;;;;;;;;;;;4940897;28;20021;-64
2021/03/06 07:04:04;;;;;;;;;;;;;;;;;;4947986;28;19926;-65
2021/03/06 07:06:30;;;;;;;;;;;;;;;;;;4943557;29;19950;-65
2021/03/06 07:08:57;;;;;;;;;;;;;;;;;;4939946;29;19926;-65
2021/03/06 07:11:23;;;;;;;;;;;;;;;;;;4936461;29;20391;-65
2021/03/06 07:13:50;;;;;;;;;;;;;;;;;;4941786;29;19945;-65
2021/03/06 07:16:16;;;;;;;;;;;;;;;;;;4939548;28;19927;-65
2021/03/06 07:18:43;;;;;;;;;;;;;;;;;;4937380;29;20311;-65
2021/03/06 07:21:09;;;;;;;;;;;;;;;;;;4951383;28;19926;-65
2021/03/06 07:23:36;;;;;;;;;;;;;;;;;;4946342;28;19935;-66
2021/03/06 07:26:02;;;;;;;;;;;;;;;;;;4947752;29;19927;-65
2021/03/06 07:28:29;;;;;;;;;;;;;;;;;;4946438;29;20382;-65
2021/03/06 07:30:55;;;;;;;;;;;;;;;;;;4939278;29;20026;-65
2021/03/06 07:33:22;;;;;;;;;;;;;;;;;;4948180;29;19933;-65
2021/03/06 07:35:48;;;;;;;;;;;;;;;;;;4945388;28;20428;-66
2021/03/06 07:38:15;;;;;;;;;;;;;;;;;;4939802;28;19935;-65
2021/03/06 07:40:42;;;;;;;;;;;;;;;;;;4949561;28;19934;-65
2021/03/06 07:43:08;;;;;;;;;;;;;;;;;;4945658;28;20056;-66
2021/03/06 07:45:35;;;;;;;;;;;;;;;;;;4948293;29;20061;-67
2021/03/06 07:48:01;;;;;;;;;;;;;;;;;;4946875;28;19966;-65
2021/03/06 07:50:27;;;;;;;;;;;;;;;;;;4938106;29;19942;-67
2021/03/06 07:52:54;;;;;;;;;;;;;;;;;;4941512;29;20030;-66
2021/03/06 07:55:22;;;;;;;;;;;;;;;;;;4948323;29;19927;-66
2021/03/06 07:57:49;;;;;;;;;;;;;;;;;;4944929;28;20391;-66
2021/03/06 08:00:15;;;;;;;;;;;;;;;;;;4946080;28;19927;-66
2021/03/06 08:02:42;;;;;;;;;;;;;;;;;;4944834;28;19958;-68
2021/03/06 08:05:08;;;;;;;;;;;;;;;;;;4941810;28;20022;-65
2021/03/06 08:07:35;;;;;;;;;;;;;;;;;;4943222;28;19935;-68
2021/03/06 08:10:06;;;;;;;;;;;;;;;;;;4945546;29;20298;-68
2021/03/06 08:12:33;;;;;;;;;;;;;;;;;;4947091;28;20056;-65
2021/03/06 08:14:59;;;;;;;;;;;;;;;;;;4942585;29;19930;-65
2021/03/06 08:17:26;;;;;;;;;;;;;;;;;;4939393;29;19930;-68
2021/03/06 08:19:52;;;;;;;;;;;;;;;;;;4940656;28;20372;-68
2021/03/06 08:22:19;;;;;;;;;;;;;;;;;;4942148;29;20299;-64
2021/03/06 08:24:45;;;;;;;;;;;;;;;;;;4945197;28;19982;-66
2021/03/06 08:27:12;;;;;;;;;;;;;;;;;;4941976;29;20013;-67
2021/03/06 08:29:38;;;;;;;;;;;;;;;;;;4943130;29;20442;-67
2021/03/06 08:32:05;;;;;;;;;;;;;;;;;;4950228;29;20505;-67
2021/03/06 08:34:33;;;;;;;;;;;;;;;;;;4939064;28;19931;-66
2021/03/06 08:37:00;;;;;;;;;;;;;;;;;;4938538;29;20356;-65
2021/03/06 08:39:26;;;;;;;;;;;;;;;;;;4939479;29;20014;-66
2021/03/06 08:41:53;;;;;;;;;;;;;;;;;;4949019;29;19933;-65
2021/03/06 08:44:19;;;;;;;;;;;;;;;;;;4962884;28;19936;-64
2021/03/06 08:46:46;;;;;;;;;;;;;;;;;;4947156;28;19930;-66
2021/03/06 08:49:12;;;;;;;;;;;;;;;;;;4944744;29;20111;-65
2021/03/06 08:51:39;;;;;;;;;;;;;;;;;;4950091;29;20366;-66
2021/03/06 08:54:05;;;;;;;;;;;;;;;;;;4941271;29;19926;-65
2021/03/06 08:56:32;;;;;;;;;;;;;;;;;;4945875;29;19961;-65
2021/03/06 08:58:58;;;;;;;;;;;;;;;;;;4954939;28;19926;-66
2021/03/06 09:01:25;;;;;;;;;;;;;;;;;;4942707;29;20014;-65
2021/03/06 09:03:51;;;;;;;;;;;;;;;;;;4942019;28;19957;-67
2021/03/06 09:06:18;;;;;;;;;;;;;;;;;;4944634;29;19994;-66
2021/03/06 09:08:44;;;;;;;;;;;;;;;;;;4944779;28;20376;-65
2021/03/06 09:11:11;;;;;;;;;;;;;;;;;;4946672;28;19933;-65
2021/03/06 09:13:37;;;;;;;;;;;;;;;;;;4943144;28;20310;-66
2021/03/06 09:16:04;;;;;;;;;;;;;;;;;;4941364;29;19937;-66
2021/03/06 09:18:30;;;;;;;;;;;;;;;;;;4942199;28;20005;-65
2021/03/06 09:20:57;;;;;;;;;;;;;;;;;;4942165;29;19931;-67
2021/03/06 09:23:23;;;;;;;;;;;;;;;;;;4933301;29;19927;-65
2021/03/06 09:25:50;;;;;;;;;;;;;;;;;;4945896;29;20379;-65
2021/03/06 09:28:16;;;;;;;;;;;;;;;;;;4933569;29;19949;-66
2021/03/06 09:30:43;;;;;;;;;;;;;;;;;;4939441;29;19930;-66
2021/03/06 09:33:09;;;;;;;;;;;;;;;;;;4944635;29;20017;-66
2021/03/06 09:35:37;;;;;;;;;;;;;;;;;;4937740;29;20376;-66
2021/03/06 09:38:03;;;;;;;;;;;;;;;;;;4948114;29;20006;-65
2021/03/06 09:40:30;;;;;;;;;;;;;;;;;;4941397;29;20017;-66
2021/03/06 09:42:56;;;;;;;;;;;;;;;;;;4969695;23;20032;-66
2021/03/06 09:45:24;;;;;;;;;;;;;;;;;;4980377;28;19932;-65
2021/03/06 09:47:50;;;;;;;;;;;;;;;;;;4979131;28;19980;-66
2021/03/06 09:50:17;;;;;;;;;;;;;;;;;;4973918;28;20501;-68
2021/03/06 09:52:44;;;;;;;;;;;;;;;;;;4978210;28;19926;-66
2021/03/06 09:55:13;;;;;;;;;;;;;;;;;;4975416;28;19933;-65
2021/03/06 09:57:39;;;;;;;;;;;;;;;;;;4968872;28;19925;-66
2021/03/06 10:00:06;;;;;;;;;;;;;;;;;;4973563;28;20440;-65
2021/03/06 10:02:32;;;;;;;;;;;;;;;;;;4976464;28;19926;-66
2021/03/06 10:04:59;;;;;;;;;;;;;;;;;;4972742;28;19972;-66
2021/03/06 10:07:27;;;;;;;;;;;;;;;;;;4970640;28;19933;-65
2021/03/06 10:09:53;;;;;;;;;;;;;;;;;;4975858;28;20021;-67
2021/03/06 10:12:20;;;;;;;;;;;;;;;;;;4981818;28;19981;-67
2021/03/06 10:14:46;;;;;;;;;;;;;;;;;;4980513;28;19933;-67
2021/03/06 10:17:13;;;;;;;;;;;;;;;;;;4982033;28;19926;-67
2021/03/06 10:19:39;;;;;;;;;;;;;;;;;;4979323;28;19926;-66
2021/03/06 10:22:06;;;;;;;;;;;;;;;;;;4972873;28;19930;-66
2021/03/06 10:24:32;;;;;;;;;;;;;;;;;;4971342;28;19926;-65
2021/03/06 10:26:59;;;;;;;;;;;;;;;;;;4968875;28;20028;-65
2021/03/06 10:29:25;;;;;;;;;;;;;;;;;;4980898;28;19929;-67
2021/03/06 10:31:52;;;;;;;;;;;;;;;;;;4978372;28;20020;-65
2021/03/06 10:34:18;;;;;;;;;;;;;;;;;;4970866;28;19955;-67
2021/03/06 10:36:45;;;;;;;;;;;;;;;;;;4969986;28;20029;-67
2021/03/06 10:39:12;;;;;;;;;;;;;;;;;;4977920;28;19975;-67
2021/03/06 10:41:38;;;;;;;;;;;;;;;;;;4982223;28;20013;-67
2021/03/06 10:44:05;;;;;;;;;;;;;;;;;;4976532;28;19946;-66
2021/03/06 10:46:32;;;;;;;;;;;;;;;;;;4981256;28;19926;-67
2021/03/06 10:48:59;;;;;;;;;;;;;;;;;;4977435;28;19926;-67
2021/03/06 10:51:25;;;;;;;;;;;;;;;;;;4981036;28;19932;-68
2021/03/06 10:53:52;;;;;;;;;;;;;;;;;;4978663;28;19934;-66
2021/03/06 10:56:18;;;;;;;;;;;;;;;;;;4976366;28;20676;-67
2021/03/06 10:58:45;;;;;;;;;;;;;;;;;;4975750;28;20012;-67
2021/03/06 11:01:12;;;;;;;;;;;;;;;;;;4979520;28;20393;-68
2021/03/06 11:03:39;;;;;;;;;;;;;;;;;;4972323;28;19933;-67
2021/03/06 11:06:05;;;;;;;;;;;;;;;;;;4973834;28;20202;-66
2021/03/06 11:08:31;;;;;;;;;;;;;;;;;;4985403;28;19933;-67
2021/03/06 11:10:58;;;;;;;;;;;;;;;;;;4980744;28;19948;-68
2021/03/06 11:13:25;;;;;;;;;;;;;;;;;;4981089;28;19925;-64
2021/03/06 11:15:51;;;;;;;;;;;;;;;;;;4982805;28;19926;-65
2021/03/06 11:18:18;;;;;;;;;;;;;;;;;;4970440;28;19977;-64
2021/03/06 11:20:44;;;;;;;;;;;;;;;;;;4977440;28;19969;-66
2021/03/06 11:23:11;;;;;;;;;;;;;;;;;;4977152;28;19926;-66
2021/03/06 11:25:37;;;;;;;;;;;;;;;;;;4972114;28;19961;-66
2021/03/06 11:28:04;;;;;;;;;;;;;;;;;;4978426;28;19926;-66
2021/03/06 11:30:30;;;;;;;;;;;;;;;;;;4964922;28;19927;-67
2021/03/06 11:32:57;;;;;;;;;;;;;;;;;;4964853;28;19930;-65
2021/03/06 11:35:23;;;;;;;;;;;;;;;;;;4964691;28;19932;-64
2021/03/06 11:37:50;;;;;;;;;;;;;;;;;;4966509;28;19926;-66
2021/03/06 11:40:18;;;;;;;;;;;;;;;;;;4963133;28;20219;-64
2021/03/06 11:42:47;;;;;;;;;;;;;;;;;;4920224;28;1277143;-66
2021/03/06 11:45:15;;;;;;;;;;;;;;;;;;4970596;28;19948;-64
2021/03/06 11:47:47;;;;;;;;;;;;;;;;;;4967354;28;20381;-64
2021/03/06 11:50:14;;;;;;;;;;;;;;;;;;4969800;28;20021;-64
2021/03/06 11:52:40;;;;;;;;;;;;;;;;;;4972740;28;19937;-64
2021/03/06 11:55:07;;;;;;;;;;;;;;;;;;4974180;28;19930;-65
2021/03/06 11:57:33;;;;;;;;;;;;;;;;;;4974243;28;20281;-65
2021/03/06 12:00:00;;;;;;;;;;;;;;;;;;4974459;28;19926;-64
2021/03/06 12:02:27;;;;;;;;;;;;;;;;;;4971793;28;20025;-66
2021/03/06 12:04:53;;;;;;;;;;;;;;;;;;4969021;28;19961;-66
2021/03/06 12:07:20;;;;;;;;;;;;;;;;;;4972829;28;20010;-65
2021/03/06 12:09:46;;;;;;;;;;;;;;;;;;4969525;28;20021;-65
2021/03/06 12:12:13;;;;;;;;;;;;;;;;;;4971078;28;19965;-64
2021/03/06 12:14:40;;;;;;;;;;;;;;;;;;4970083;28;20317;-65
2021/03/06 12:17:09;;;;;;;;;;;;;;;;;;4971689;28;19926;-66
2021/03/06 12:19:35;;;;;;;;;;;;;;;;;;4968561;28;19926;-66
2021/03/06 12:22:02;;;;;;;;;;;;;;;;;;4965358;28;20390;-64
2021/03/06 12:24:28;;;;;;;;;;;;;;;;;;4970188;28;20013;-63
2021/03/06 12:26:55;;;;;;;;;;;;;;;;;;4972887;28;20016;-66
2021/03/06 12:29:23;;;;;;;;;;;;;;;;;;4967688;28;20298;-65
2021/03/06 12:31:50;;;;;;;;;;;;;;;;;;4968887;28;19926;-64
2021/03/06 12:34:16;;;;;;;;;;;;;;;;;;4967740;28;20212;-64
2021/03/06 12:36:43;;;;;;;;;;;;;;;;;;4972499;28;19930;-64
2021/03/06 12:39:09;;;;;;;;;;;;;;;;;;4965970;28;19980;-67
2021/03/06 12:41:36;;;;;;;;;;;;;;;;;;4973638;28;20309;-67
2021/03/06 12:44:02;;;;;;;;;;;;;;;;;;4970192;28;19938;-66
2021/03/06 12:46:29;;;;;;;;;;;;;;;;;;4970065;28;19930;-66
2021/03/06 12:48:55;;;;;;;;;;;;;;;;;;4972935;28;20069;-67
2021/03/06 12:51:22;;;;;;;;;;;;;;;;;;4968160;28;20028;-67
2021/03/06 12:53:48;;;;;;;;;;;;;;;;;;4972706;28;20589;-66
2021/03/06 12:56:15;;;;;;;;;;;;;;;;;;4974501;28;19930;-66
2021/03/06 12:58:41;;;;;;;;;;;;;;;;;;4975592;28;20386;-65
2021/03/06 13:01:08;;;;;;;;;;;;;;;;;;4977880;28;19972;-66
2021/03/06 13:03:34;;;;;;;;;;;;;;;;;;4973079;28;20354;-65
2021/03/06 13:06:01;;;;;;;;;;;;;;;;;;4972101;28;20303;-64
2021/03/06 13:08:27;;;;;;;;;;;;;;;;;;4972003;28;19974;-65
2021/03/06 13:10:54;;;;;;;;;;;;;;;;;;4961324;28;20409;-66
2021/03/06 13:13:21;;;;;;;;;;;;;;;;;;4970788;28;19934;-66
2021/03/06 13:15:47;;;;;;;;;;;;;;;;;;4969677;28;20025;-64
2021/03/06 13:18:14;;;;;;;;;;;;;;;;;;4970095;28;19926;-67
2021/03/06 13:20:40;;;;;;;;;;;;;;;;;;4981827;28;19934;-68
2021/03/06 13:23:07;;;;;;;;;;;;;;;;;;4987833;28;19965;-66
2021/03/06 13:25:33;;;;;;;;;;;;;;;;;;4984761;28;19930;-68
2021/03/06 13:28:00;;;;;;;;;;;;;;;;;;4978729;28;19926;-66
2021/03/06 13:30:29;;;;;;;;;;;;;;;;;;4973755;28;20334;-67
2021/03/06 13:32:55;;;;;;;;;;;;;;;;;;4984870;28;19934;-65
2021/03/06 13:35:22;;;;;;;;;;;;;;;;;;4979442;28;19993;-66
2021/03/06 13:37:49;;;;;;;;;;;;;;;;;;4976081;28;19925;-66
2021/03/06 13:40:15;;;;;;;;;;;;;;;;;;4975645;28;19982;-65
2021/03/06 13:42:42;;;;;;;;;;;;;;;;;;4968723;28;19981;-67
2021/03/06 13:45:08;;;;;;;;;;;;;;;;;;4970992;28;19941;-68
2021/03/06 13:47:35;;;;;;;;;;;;;;;;;;4969030;28;20449;-67
2021/03/06 13:50:02;;;;;;;;;;;;;;;;;;4972072;28;20349;-66
2021/03/06 13:52:28;;;;;;;;;;;;;;;;;;4969797;28;19926;-67
2021/03/06 13:54:55;;;;;;;;;;;;;;;;;;4972281;28;19930;-67
2021/03/06 13:57:21;;;;;;;;;;;;;;;;;;4965942;28;19973;-66
2021/03/06 13:59:48;;;;;;;;;;;;;;;;;;4970800;28;20023;-67
2021/03/06 14:02:14;;;;;;;;;;;;;;;;;;4971229;28;19926;-67
2021/03/06 14:04:41;;;;;;;;;;;;;;;;;;4980200;28;19985;-65
2021/03/06 14:07:07;;;;;;;;;;;;;;;;;;4973011;28;19926;-67
2021/03/06 14:09:34;;;;;;;;;;;;;;;;;;4971184;28;20326;-67
2021/03/06 14:12:00;;;;;;;;;;;;;;;;;;4974961;28;19934;-66
2021/03/06 14:14:27;;;;;;;;;;;;;;;;;;4981704;28;19933;-65
2021/03/06 14:16:53;;;;;;;;;;;;;;;;;;4975750;28;20470;-65
2021/03/06 14:19:20;;;;;;;;;;;;;;;;;;4970654;28;19933;-65
2021/03/06 14:21:46;;;;;;;;;;;;;;;;;;4974568;28;19926;-66
2021/03/06 14:24:13;;;;;;;;;;;;;;;;;;4969587;28;19940;-67
2021/03/06 14:26:40;;;;;;;;;;;;;;;;;;4978394;28;20302;-66
2021/03/06 14:29:06;;;;;;;;;;;;;;;;;;4971745;28;20012;-66
2021/03/06 14:31:33;;;;;;;;;;;;;;;;;;4973126;28;20011;-67
2021/03/06 14:34:01;;;;;;;;;;;;;;;;;;4968388;28;19985;-65
2021/03/06 14:36:27;;;;;;;;;;;;;;;;;;4978045;28;19970;-67
2021/03/06 14:38:54;;;;;;;;;;;;;;;;;;4973631;28;19933;-66
2021/03/06 14:41:21;;;;;;;;;;;;;;;;;;4975692;28;20092;-65
2021/03/06 14:43:47;;;;;;;;;;;;;;;;;;4968890;28;19980;-66
2021/03/06 14:46:14;;;;;;;;;;;;;;;;;;4967045;28;19930;-66
2021/03/06 14:48:40;;;;;;;;;;;;;;;;;;4968957;28;19985;-67
2021/03/06 14:51:06;;;;;;;;;;;;;;;;;;4972276;28;19927;-66
2021/03/06 14:53:33;;;;;;;;;;;;;;;;;;4966655;28;19930;-67
2021/03/06 14:56:00;;;;;;;;;;;;;;;;;;4967982;28;20025;-65
2021/03/06 14:58:26;;;;;;;;;;;;;;;;;;4974278;28;19926;-67
2021/03/06 15:00:53;;;;;;;;;;;;;;;;;;4968295;28;19972;-67
2021/03/06 15:03:19;;;;;;;;;;;;;;;;;;4968531;28;19939;-65
2021/03/06 15:05:46;;;;;;;;;;;;;;;;;;4973930;28;19980;-67
2021/03/06 15:08:12;;;;;;;;;;;;;;;;;;4968163;28;20267;-67
2021/03/06 15:10:39;;;;;;;;;;;;;;;;;;4975640;28;20389;-67
2021/03/06 15:13:05;;;;;;;;;;;;;;;;;;4967859;28;20302;-67
2021/03/06 15:15:32;;;;;;;;;;;;;;;;;;4966836;28;19969;-67
2021/03/06 15:17:59;;;;;;;;;;;;;;;;;;4962283;28;20020;-66
2021/03/06 15:20:26;;;;;;;;;;;;;;;;;;4977424;28;20184;-67
2021/03/06 15:22:52;;;;;;;;;;;;;;;;;;4977546;28;19925;-67
2021/03/06 15:25:19;;;;;;;;;;;;;;;;;;4970041;28;20380;-67
2021/03/06 15:27:45;;;;;;;;;;;;;;;;;;4978002;28;20403;-68
2021/03/06 15:30:12;;;;;;;;;;;;;;;;;;4966876;28;19930;-68
2021/03/06 15:32:38;;;;;;;;;;;;;;;;;;4974868;28;20295;-67
2021/03/06 15:35:05;;;;;;;;;;;;;;;;;;4975936;28;20425;-66
2021/03/06 15:37:32;;;;;;;;;;;;;;;;;;4971377;28;19988;-67
2021/03/06 15:39:59;;;;;;;;;;;;;;;;;;4968674;28;19934;-65
2021/03/06 15:42:25;;;;;;;;;;;;;;;;;;4967167;28;20028;-67
2021/03/06 15:44:52;;;;;;;;;;;;;;;;;;4969915;23;19934;-65
2021/03/06 15:47:20;;;;;;;;;;;;;;;;;;4952709;28;20046;-67
2021/03/06 15:49:46;;;;;;;;;;;;;;;;;;4952685;28;19927;-65
2021/03/06 15:52:13;;;;;;;;;;;;;;;;;;4955032;28;19937;-65
2021/03/06 15:54:41;;;;;;;;;;;;;;;;;;4942689;28;20029;-64
2021/03/06 15:57:07;;;;;;;;;;;;;;;;;;4944238;29;19926;-64
2021/03/06 15:59:35;;;;;;;;;;;;;;;;;;4937344;28;19927;-65
2021/03/06 16:02:01;;;;;;;;;;;;;;;;;;4940169;29;19969;-62
2021/03/06 16:04:28;;;;;;;;;;;;;;;;;;4945028;28;20276;-65
2021/03/06 16:06:54;;;;;;;;;;;;;;;;;;4940173;29;19932;-65
2021/03/06 16:09:23;;;;;;;;;;;;;;;;;;4945801;29;19927;-65
2021/03/06 16:11:49;;;;;;;;;;;;;;;;;;4946022;29;19933;-66
2021/03/06 16:14:16;;;;;;;;;;;;;;;;;;4945333;28;19926;-64
2021/03/06 16:16:42;;;;;;;;;;;;;;;;;;4944794;28;19990;-64
2021/03/06 16:19:09;;;;;;;;;;;;;;;;;;4944922;28;20413;-64
2021/03/06 16:21:38;;;;;;;;;;;;;;;;;;4940814;28;19932;-64
2021/03/06 16:24:05;;;;;;;;;;;;;;;;;;4942158;28;20390;-65
2021/03/06 16:26:31;;;;;;;;;;;;;;;;;;4941915;28;19930;-65
2021/03/06 16:28:58;;;;;;;;;;;;;;;;;;4937334;29;20169;-65
2021/03/06 16:31:24;;;;;;;;;;;;;;;;;;4939220;29;19930;-66
2021/03/06 16:33:51;;;;;;;;;;;;;;;;;;4935971;28;19955;-65
2021/03/06 16:36:17;;;;;;;;;;;;;;;;;;4946195;28;20499;-65
2021/03/06 16:38:44;;;;;;;;;;;;;;;;;;4944112;28;20018;-66
2021/03/06 16:41:10;;;;;;;;;;;;;;;;;;4942525;29;20043;-65